Time;durP1;ratioP1;P1;durP2;ratioP2;P2;SDS_P1;SDS_P2;PMS_P1;PMS_P2;Temp;Humidity;BMP_temperature;BMP_pressure;BME280_temperature;BME280_humidity;BME280_pressure;Samples;Min_cycle;Max_cycle;Signal;HPM_P1;HPM_P2
2022/04/06 00:01:49;;;;;;;;;;;;;;;;;;6086877;23;19928;-90
2022/04/06 00:04:15;;;;;;;;;;;;;;;;;;6087254;23;19917;-90
2022/04/06 00:06:41;;;;;;;;;;;;;;;;;;6087905;23;19921;-90
2022/04/06 00:09:14;;;;;;;;;;;;;;;;;;6050850;23;19921;-91
2022/04/06 00:11:40;;;;;;;;;;;;;;;;;;6063196;23;19925;-90
2022/04/06 00:14:07;;;;;;;;;;;;;;;;;;6063149;23;19924;-91
2022/04/06 00:16:34;;;;;;;;;;;;;;;;;;6134512;23;19921;-90
2022/04/06 00:19:01;;;;;;;;;;;;;;;;;;6152768;23;19924;-90
2022/04/06 00:21:29;;;;;;;;;;;;;;;;;;6152975;23;20401;-90
2022/04/06 00:23:56;;;;;;;;;;;;;;;;;;6176685;23;19916;-90
2022/04/06 00:26:42;;;;;;;;;;;;;;;;;;6177216;23;19915;-90
2022/04/06 00:29:09;;;;;;;;;;;;;;;;;;6152099;23;19920;-90
2022/04/06 00:31:44;;;;;;;;;;;;;;;;;;6177485;23;20048;-90
2022/04/06 00:34:10;;;;;;;;;;;;;;;;;;6150596;23;19980;-90
2022/04/06 00:36:46;;;;;;;;;;;;;;;;;;6175959;23;19920;-90
2022/04/06 00:39:14;;;;;;;;;;;;;;;;;;6167142;23;19935;-91
2022/04/06 00:41:40;;;;;;;;;;;;;;;;;;6173517;23;19991;-90
2022/04/06 00:44:07;;;;;;;;;;;;;;;;;;6175218;23;19920;-91
2022/04/06 00:46:34;;;;;;;;;;;;;;;;;;6180232;23;19919;-90
2022/04/06 00:49:02;;;;;;;;;;;;;;;;;;6180395;23;20375;-90
2022/04/06 00:51:28;;;;;;;;;;;;;;;;;;6178497;23;19924;-89
2022/04/06 00:53:56;;;;;;;;;;;;;;;;;;6205547;23;19943;-90
2022/04/06 00:56:23;;;;;;;;;;;;;;;;;;6179263;23;19920;-90
2022/04/06 00:58:50;;;;;;;;;;;;;;;;;;6179385;23;19946;-90
2022/04/06 01:01:18;;;;;;;;;;;;;;;;;;6180162;23;19966;-90
2022/04/06 01:03:45;;;;;;;;;;;;;;;;;;6181019;23;19955;-90
2022/04/06 01:06:13;;;;;;;;;;;;;;;;;;6178223;23;19958;-91
2022/04/06 01:08:39;;;;;;;;;;;;;;;;;;6179167;23;20337;-90
2022/04/06 01:11:06;;;;;;;;;;;;;;;;;;6180087;23;19955;-89
2022/04/06 01:13:33;;;;;;;;;;;;;;;;;;6179433;23;19916;-90
2022/04/06 01:16:01;;;;;;;;;;;;;;;;;;6179902;23;19958;-90
2022/04/06 01:18:28;;;;;;;;;;;;;;;;;;6180205;23;19924;-90
2022/04/06 01:20:54;;;;;;;;;;;;;;;;;;6206396;23;20329;-90
2022/04/06 01:23:35;;;;;;;;;;;;;;;;;;6144150;23;19921;-90
2022/04/06 01:26:02;;;;;;;;;;;;;;;;;;6119161;23;20281;-90
2022/04/06 01:28:29;;;;;;;;;;;;;;;;;;6118243;23;20772;-91
2022/04/06 01:30:57;;;;;;;;;;;;;;;;;;6128277;23;21991;-90
2022/04/06 01:33:24;;;;;;;;;;;;;;;;;;6117807;23;19916;-90
2022/04/06 01:35:50;;;;;;;;;;;;;;;;;;6119128;23;19924;-91
2022/04/06 01:38:16;;;;;;;;;;;;;;;;;;6140058;23;19924;-90
2022/04/06 01:40:44;;;;;;;;;;;;;;;;;;6118671;23;19971;-91
2022/04/06 01:43:12;;;;;;;;;;;;;;;;;;6118044;23;19924;-91
2022/04/06 01:45:38;;;;;;;;;;;;;;;;;;6115686;23;20242;-90
2022/04/06 01:48:04;;;;;;;;;;;;;;;;;;6119713;23;19920;-91
2022/04/06 01:53:25;;;;;;;;;;;;;;;;;;6118537;23;19920;-90
2022/04/06 01:55:52;;;;;;;;;;;;;;;;;;6179829;23;19920;-91
2022/04/06 01:58:20;;;;;;;;;;;;;;;;;;6178873;23;19974;-91
2022/04/06 02:00:45;;;;;;;;;;;;;;;;;;6180415;23;19990;-91
2022/04/06 02:03:12;;;;;;;;;;;;;;;;;;6181435;23;19948;-91
2022/04/06 02:05:38;;;;;;;;;;;;;;;;;;6182530;23;19966;-91
2022/04/06 02:08:07;;;;;;;;;;;;;;;;;;6181631;23;19919;-91
2022/04/06 02:10:49;;;;;;;;;;;;;;;;;;6208965;23;19993;-91
2022/04/06 02:13:16;;;;;;;;;;;;;;;;;;6182280;23;19915;-90
2022/04/06 02:15:45;;;;;;;;;;;;;;;;;;6180707;23;19920;-91
2022/04/06 02:18:12;;;;;;;;;;;;;;;;;;6182677;23;19924;-91
2022/04/06 02:20:40;;;;;;;;;;;;;;;;;;6182737;23;19943;-91
2022/04/06 02:23:06;;;;;;;;;;;;;;;;;;6181522;23;20615;-92
2022/04/06 02:25:34;;;;;;;;;;;;;;;;;;6182536;23;19947;-91
2022/04/06 02:28:01;;;;;;;;;;;;;;;;;;6182241;23;20303;-90
2022/04/06 02:30:27;;;;;;;;;;;;;;;;;;6181842;23;19923;-91
2022/04/06 02:32:54;;;;;;;;;;;;;;;;;;6182790;23;20282;-90
2022/04/06 02:35:21;;;;;;;;;;;;;;;;;;6179593;23;19930;-90
2022/04/06 02:37:49;;;;;;;;;;;;;;;;;;6178439;23;19935;-91
2022/04/06 02:40:20;;;;;;;;;;;;;;;;;;6206084;23;19959;-91
2022/04/06 02:42:55;;;;;;;;;;;;;;;;;;6205696;23;19962;-91
2022/04/06 02:45:22;;;;;;;;;;;;;;;;;;6205639;23;19919;-90
2022/04/06 02:47:49;;;;;;;;;;;;;;;;;;6180262;23;19916;-91
2022/04/06 02:50:16;;;;;;;;;;;;;;;;;;6181126;23;19919;-90
2022/04/06 02:52:42;;;;;;;;;;;;;;;;;;6179294;23;19920;-91
2022/04/06 02:55:12;;;;;;;;;;;;;;;;;;6205006;23;20279;-91
2022/04/06 02:57:39;;;;;;;;;;;;;;;;;;6178858;23;19919;-90
2022/04/06 03:00:06;;;;;;;;;;;;;;;;;;6179702;23;20256;-91
2022/04/06 03:02:33;;;;;;;;;;;;;;;;;;6178886;23;19919;-91
2022/04/06 03:05:00;;;;;;;;;;;;;;;;;;6179187;23;20248;-90
2022/04/06 03:07:27;;;;;;;;;;;;;;;;;;6178603;23;19920;-91
2022/04/06 03:10:08;;;;;;;;;;;;;;;;;;6207027;23;19922;-91
2022/04/06 03:12:36;;;;;;;;;;;;;;;;;;6177328;23;20226;-91
2022/04/06 03:15:03;;;;;;;;;;;;;;;;;;6179408;23;20009;-91
2022/04/06 03:17:30;;;;;;;;;;;;;;;;;;6179192;23;19920;-91
2022/04/06 03:20:02;;;;;;;;;;;;;;;;;;6205582;23;19924;-91
2022/04/06 03:22:30;;;;;;;;;;;;;;;;;;6179142;23;19998;-90
2022/04/06 03:24:57;;;;;;;;;;;;;;;;;;6179385;23;19920;-91
2022/04/06 03:27:24;;;;;;;;;;;;;;;;;;6178883;23;19919;-91
2022/04/06 03:29:51;;;;;;;;;;;;;;;;;;6179201;23;19930;-90
2022/04/06 03:32:17;;;;;;;;;;;;;;;;;;6180256;23;19915;-90
2022/04/06 03:34:45;;;;;;;;;;;;;;;;;;6179613;23;19932;-91
2022/04/06 03:37:11;;;;;;;;;;;;;;;;;;6204248;23;19920;-91
2022/04/06 03:39:39;;;;;;;;;;;;;;;;;;6178674;23;19924;-91
2022/04/06 03:42:06;;;;;;;;;;;;;;;;;;6178584;23;19919;-91
2022/04/06 03:44:33;;;;;;;;;;;;;;;;;;6179082;23;20552;-90
2022/04/06 03:47:00;;;;;;;;;;;;;;;;;;6179471;23;19926;-91
2022/04/06 03:49:26;;;;;;;;;;;;;;;;;;6181026;23;19920;-91
2022/04/06 03:51:52;;;;;;;;;;;;;;;;;;6179555;23;19926;-91
2022/04/06 03:54:18;;;;;;;;;;;;;;;;;;6204232;23;19920;-90
2022/04/06 03:56:44;;;;;;;;;;;;;;;;;;6180321;23;19926;-91
2022/04/06 03:59:25;;;;;;;;;;;;;;;;;;6134455;23;19921;-90
2022/04/06 04:01:52;;;;;;;;;;;;;;;;;;6139114;23;20393;-90
2022/04/06 04:04:19;;;;;;;;;;;;;;;;;;6139059;23;19987;-91
2022/04/06 04:06:46;;;;;;;;;;;;;;;;;;6114245;23;19920;-90
2022/04/06 04:09:12;;;;;;;;;;;;;;;;;;6137987;23;19932;-91
2022/04/06 04:11:42;;;;;;;;;;;;;;;;;;6138466;23;19992;-91
2022/04/06 04:14:09;;;;;;;;;;;;;;;;;;6138136;23;20612;-92
2022/04/06 04:16:36;;;;;;;;;;;;;;;;;;6112478;23;19972;-92
2022/04/06 04:19:03;;;;;;;;;;;;;;;;;;6114670;23;20004;-91
2022/04/06 04:21:34;;;;;;;;;;;;;;;;;;6114315;23;19925;-91
2022/04/06 04:24:03;;;;;;;;;;;;;;;;;;6090355;23;19946;-91
2022/04/06 04:26:30;;;;;;;;;;;;;;;;;;6139604;23;19996;-91
2022/04/06 04:28:57;;;;;;;;;;;;;;;;;;6138754;23;19920;-91
2022/04/06 04:31:24;;;;;;;;;;;;;;;;;;6173909;23;19920;-91
2022/04/06 04:33:50;;;;;;;;;;;;;;;;;;6180806;23;20257;-91
2022/04/06 04:36:23;;;;;;;;;;;;;;;;;;6180229;23;20285;-91
2022/04/06 04:38:51;;;;;;;;;;;;;;;;;;6180094;23;20324;-91
2022/04/06 04:41:18;;;;;;;;;;;;;;;;;;6179282;23;19920;-91
2022/04/06 04:43:45;;;;;;;;;;;;;;;;;;6181426;23;19999;-90
2022/04/06 04:46:11;;;;;;;;;;;;;;;;;;6180664;23;19926;-91
2022/04/06 04:48:37;;;;;;;;;;;;;;;;;;6181277;23;19919;-92
2022/04/06 04:51:20;;;;;;;;;;;;;;;;;;6143923;23;19921;-91
2022/04/06 04:53:47;;;;;;;;;;;;;;;;;;6094572;23;19921;-91
2022/04/06 04:56:16;;;;;;;;;;;;;;;;;;6119934;23;19921;-91
2022/04/06 04:58:42;;;;;;;;;;;;;;;;;;6123143;23;19971;-92
2022/04/06 05:01:09;;;;;;;;;;;;;;;;;;6120435;23;19924;-90
2022/04/06 05:03:36;;;;;;;;;;;;;;;;;;6120330;23;19916;-91
2022/04/06 05:06:04;;;;;;;;;;;;;;;;;;6096955;23;20250;-91
2022/04/06 05:08:30;;;;;;;;;;;;;;;;;;6119435;23;19925;-91
2022/04/06 05:11:03;;;;;;;;;;;;;;;;;;6095793;23;20440;-91
2022/04/06 05:13:31;;;;;;;;;;;;;;;;;;6094458;23;19954;-91
2022/04/06 05:15:57;;;;;;;;;;;;;;;;;;6118665;23;19928;-91
2022/04/06 05:18:24;;;;;;;;;;;;;;;;;;6092938;23;19946;-91
2022/04/06 05:20:53;;;;;;;;;;;;;;;;;;6143913;23;19944;-92
2022/04/06 05:23:19;;;;;;;;;;;;;;;;;;6174396;23;19982;-91
2022/04/06 05:25:47;;;;;;;;;;;;;;;;;;6180953;23;19920;-91
2022/04/06 05:28:18;;;;;;;;;;;;;;;;;;6178543;23;19927;-91
2022/04/06 05:30:46;;;;;;;;;;;;;;;;;;6206190;23;19927;-90
2022/04/06 05:33:14;;;;;;;;;;;;;;;;;;6178766;23;19971;-91
2022/04/06 05:35:41;;;;;;;;;;;;;;;;;;6180702;23;19991;-91
2022/04/06 05:38:07;;;;;;;;;;;;;;;;;;6179104;23;19978;-90
2022/04/06 05:40:34;;;;;;;;;;;;;;;;;;6179481;23;19923;-92
2022/04/06 05:43:01;;;;;;;;;;;;;;;;;;6181845;23;20333;-92
2022/04/06 05:45:27;;;;;;;;;;;;;;;;;;6184281;23;19923;-91
2022/04/06 05:47:54;;;;;;;;;;;;;;;;;;6184604;23;19997;-92
2022/04/06 05:50:21;;;;;;;;;;;;;;;;;;6183805;23;19920;-92
2022/04/06 05:52:52;;;;;;;;;;;;;;;;;;6183066;23;19915;-92
2022/04/06 05:55:19;;;;;;;;;;;;;;;;;;6182019;23;19919;-91
2022/04/06 05:57:46;;;;;;;;;;;;;;;;;;6181948;23;19916;-92
2022/04/06 06:00:14;;;;;;;;;;;;;;;;;;6182083;23;20019;-92
2022/04/06 06:02:43;;;;;;;;;;;;;;;;;;6182718;23;20000;-91
2022/04/06 06:05:28;;;;;;;;;;;;;;;;;;6175092;23;20470;-91
2022/04/06 06:07:56;;;;;;;;;;;;;;;;;;6127051;23;20348;-91
2022/04/06 06:10:32;;;;;;;;;;;;;;;;;;6152118;23;19924;-91
2022/04/06 06:12:58;;;;;;;;;;;;;;;;;;6202626;23;19926;-92
2022/04/06 06:15:28;;;;;;;;;;;;;;;;;;6153551;23;19920;-93
2022/04/06 06:17:55;;;;;;;;;;;;;;;;;;6153534;23;19935;-92
2022/04/06 06:20:22;;;;;;;;;;;;;;;;;;6128040;23;19987;-92
2022/04/06 06:23:03;;;;;;;;;;;;;;;;;;6118802;23;19925;-91
2022/04/06 06:25:30;;;;;;;;;;;;;;;;;;6092581;23;20377;-92
2022/04/06 06:27:57;;;;;;;;;;;;;;;;;;6093641;23;19964;-92
2022/04/06 06:30:26;;;;;;;;;;;;;;;;;;6093915;23;20413;-92
2022/04/06 06:32:55;;;;;;;;;;;;;;;;;;6117213;23;19920;-92
2022/04/06 06:35:23;;;;;;;;;;;;;;;;;;6090764;23;19916;-92
2022/04/06 06:37:54;;;;;;;;;;;;;;;;;;6091784;23;19921;-91
2022/04/06 06:40:21;;;;;;;;;;;;;;;;;;6118429;23;19931;-90
2022/04/06 06:42:48;;;;;;;;;;;;;;;;;;6093643;23;19917;-92
2022/04/06 06:45:15;;;;;;;;;;;;;;;;;;6093338;23;19920;-91
2022/04/06 06:47:41;;;;;;;;;;;;;;;;;;6092163;23;19944;-91
2022/04/06 06:50:07;;;;;;;;;;;;;;;;;;6093293;23;20194;-91
2022/04/06 06:52:34;;;;;;;;;;;;;;;;;;6093819;23;19921;-91
2022/04/06 06:55:01;;;;;;;;;;;;;;;;;;6173219;23;20345;-91
2022/04/06 06:57:29;;;;;;;;;;;;;;;;;;6183821;23;19923;-92
2022/04/06 06:59:56;;;;;;;;;;;;;;;;;;6185183;23;19947;-92
2022/04/06 07:02:23;;;;;;;;;;;;;;;;;;6210559;23;19942;-92
2022/04/06 07:04:49;;;;;;;;;;;;;;;;;;6184629;23;20173;-91
2022/04/06 07:07:16;;;;;;;;;;;;;;;;;;6185263;23;19950;-91
2022/04/06 07:09:42;;;;;;;;;;;;;;;;;;6185120;23;19916;-92
2022/04/06 07:12:10;;;;;;;;;;;;;;;;;;6185295;23;20226;-92
2022/04/06 07:14:38;;;;;;;;;;;;;;;;;;6185339;23;19920;-92
2022/04/06 07:17:04;;;;;;;;;;;;;;;;;;6186270;23;19916;-92
2022/04/06 07:19:31;;;;;;;;;;;;;;;;;;6185609;23;19924;-93
2022/04/06 07:21:59;;;;;;;;;;;;;;;;;;6185719;23;19930;-92
2022/04/06 07:24:26;;;;;;;;;;;;;;;;;;6185940;23;19915;-91
2022/04/06 07:26:52;;;;;;;;;;;;;;;;;;6184231;23;19919;-92
2022/04/06 07:29:20;;;;;;;;;;;;;;;;;;6211092;23;19916;-92
2022/04/06 07:31:47;;;;;;;;;;;;;;;;;;6184854;23;20288;-92
2022/04/06 07:34:14;;;;;;;;;;;;;;;;;;6183661;23;19955;-92
2022/04/06 07:36:42;;;;;;;;;;;;;;;;;;6182323;23;19948;-91
2022/04/06 07:39:10;;;;;;;;;;;;;;;;;;6206362;23;20283;-91
2022/04/06 07:41:37;;;;;;;;;;;;;;;;;;6182300;23;19991;-92
2022/04/06 07:44:04;;;;;;;;;;;;;;;;;;6182615;23;19987;-93
2022/04/06 07:46:35;;;;;;;;;;;;;;;;;;6209292;23;19942;-92
2022/04/06 07:49:02;;;;;;;;;;;;;;;;;;6183164;23;19916;-92
2022/04/06 07:51:30;;;;;;;;;;;;;;;;;;6184256;23;19966;-93
2022/04/06 07:53:57;;;;;;;;;;;;;;;;;;6186914;23;20349;-91
2022/04/06 07:56:23;;;;;;;;;;;;;;;;;;6211202;23;19990;-92
2022/04/06 07:58:50;;;;;;;;;;;;;;;;;;6186371;23;19928;-92
2022/04/06 08:01:17;;;;;;;;;;;;;;;;;;6186122;23;19919;-92
2022/04/06 08:03:44;;;;;;;;;;;;;;;;;;6186930;23;19982;-92
2022/04/06 08:06:11;;;;;;;;;;;;;;;;;;6186455;23;19926;-93
2022/04/06 08:08:40;;;;;;;;;;;;;;;;;;6213471;23;19947;-92
2022/04/06 08:11:08;;;;;;;;;;;;;;;;;;6185972;23;19959;-93
2022/04/06 08:13:34;;;;;;;;;;;;;;;;;;6186614;23;19922;-92
2022/04/06 08:16:02;;;;;;;;;;;;;;;;;;6186788;23;19915;-92
2022/04/06 08:18:29;;;;;;;;;;;;;;;;;;6186769;23;20230;-92
2022/04/06 08:20:57;;;;;;;;;;;;;;;;;;6186628;23;20643;-93
2022/04/06 08:23:25;;;;;;;;;;;;;;;;;;6186613;23;19915;-92
2022/04/06 08:25:53;;;;;;;;;;;;;;;;;;6192084;23;19970;-92
2022/04/06 08:28:20;;;;;;;;;;;;;;;;;;6192400;23;20284;-92
2022/04/06 08:30:48;;;;;;;;;;;;;;;;;;6191240;23;20240;-93
2022/04/06 08:33:15;;;;;;;;;;;;;;;;;;6195616;23;20245;-91
2022/04/06 08:35:43;;;;;;;;;;;;;;;;;;6192630;23;19919;-93
2022/04/06 08:38:10;;;;;;;;;;;;;;;;;;6185978;23;19955;-92
2022/04/06 08:40:38;;;;;;;;;;;;;;;;;;6186032;23;20292;-92
2022/04/06 08:43:05;;;;;;;;;;;;;;;;;;6211187;23;19916;-92
2022/04/06 08:45:32;;;;;;;;;;;;;;;;;;6210221;23;19919;-92
2022/04/06 08:47:59;;;;;;;;;;;;;;;;;;6185799;23;19920;-92
2022/04/06 08:50:26;;;;;;;;;;;;;;;;;;6185271;23;19923;-92
2022/04/06 08:52:54;;;;;;;;;;;;;;;;;;6186476;23;19926;-93
2022/04/06 08:55:36;;;;;;;;;;;;;;;;;;6212340;23;19962;-92
2022/04/06 08:58:03;;;;;;;;;;;;;;;;;;6186538;23;19916;-93
2022/04/06 09:00:30;;;;;;;;;;;;;;;;;;6186312;23;20295;-92
2022/04/06 09:02:57;;;;;;;;;;;;;;;;;;6186101;23;20364;-92
2022/04/06 09:05:23;;;;;;;;;;;;;;;;;;6186293;23;19920;-93
2022/04/06 09:07:51;;;;;;;;;;;;;;;;;;6187260;23;20249;-93
2022/04/06 09:10:37;;;;;;;;;;;;;;;;;;6201050;23;20687;-92
2022/04/06 09:13:23;;;;;;;;;;;;;;;;;;6179938;23;19920;-92
2022/04/06 09:15:53;;;;;;;;;;;;;;;;;;6154752;23;20281;-93
2022/04/06 09:18:24;;;;;;;;;;;;;;;;;;6154410;23;19924;-91
2022/04/06 09:20:53;;;;;;;;;;;;;;;;;;6180265;23;19920;-92
2022/04/06 09:23:21;;;;;;;;;;;;;;;;;;6155022;23;19916;-94
2022/04/06 09:25:48;;;;;;;;;;;;;;;;;;6154236;23;19917;-92
2022/04/06 09:28:18;;;;;;;;;;;;;;;;;;6131155;23;19943;-92
2022/04/06 09:30:44;;;;;;;;;;;;;;;;;;6129890;23;19927;-92
2022/04/06 09:33:14;;;;;;;;;;;;;;;;;;6154731;23;19917;-92
2022/04/06 09:35:41;;;;;;;;;;;;;;;;;;6153266;23;19932;-92
2022/04/06 09:38:08;;;;;;;;;;;;;;;;;;6154129;23;19987;-91
2022/04/06 09:40:34;;;;;;;;;;;;;;;;;;6132614;23;19924;-91
2022/04/06 09:43:01;;;;;;;;;;;;;;;;;;6186232;23;19987;-91
2022/04/06 09:48:20;;;;;;;;;;;;;;;;;;6185944;23;19961;-92
2022/04/06 09:50:47;;;;;;;;;;;;;;;;;;6184884;23;20225;-92
2022/04/06 09:53:14;;;;;;;;;;;;;;;;;;6185922;23;19915;-92
2022/04/06 09:55:42;;;;;;;;;;;;;;;;;;6185750;23;19927;-93
2022/04/06 09:58:10;;;;;;;;;;;;;;;;;;6211306;23;20261;-92
2022/04/06 10:00:38;;;;;;;;;;;;;;;;;;6185584;23;19943;-92
2022/04/06 10:03:05;;;;;;;;;;;;;;;;;;6210458;23;19916;-92
2022/04/06 10:05:31;;;;;;;;;;;;;;;;;;6186223;23;19916;-93
2022/04/06 10:07:59;;;;;;;;;;;;;;;;;;6185946;23;20229;-92
2022/04/06 10:10:27;;;;;;;;;;;;;;;;;;6184534;23;19924;-92
2022/04/06 10:12:54;;;;;;;;;;;;;;;;;;6186006;23;19923;-92
2022/04/06 10:15:20;;;;;;;;;;;;;;;;;;6183595;23;20261;-92
2022/04/06 10:18:02;;;;;;;;;;;;;;;;;;6141614;23;19943;-94
2022/04/06 10:20:29;;;;;;;;;;;;;;;;;;6117268;23;19921;-92
2022/04/06 10:22:56;;;;;;;;;;;;;;;;;;6118688;23;20390;-93
2022/04/06 10:25:24;;;;;;;;;;;;;;;;;;6118379;23;19956;-93
2022/04/06 10:27:53;;;;;;;;;;;;;;;;;;6143693;23;19925;-92
2022/04/06 10:30:22;;;;;;;;;;;;;;;;;;6116098;23;20424;-92
2022/04/06 10:32:50;;;;;;;;;;;;;;;;;;6092964;23;19917;-92
2022/04/06 10:35:31;;;;;;;;;;;;;;;;;;6147073;23;19920;-92
2022/04/06 10:37:57;;;;;;;;;;;;;;;;;;6120385;23;20037;-93
2022/04/06 10:40:25;;;;;;;;;;;;;;;;;;6147117;23;20355;-92
2022/04/06 10:42:52;;;;;;;;;;;;;;;;;;6122799;23;19923;-92
2022/04/06 10:45:20;;;;;;;;;;;;;;;;;;6123326;23;20380;-93
2022/04/06 10:47:47;;;;;;;;;;;;;;;;;;6123069;23;20427;-93
2022/04/06 10:50:17;;;;;;;;;;;;;;;;;;6126588;23;19955;-92
2022/04/06 10:52:45;;;;;;;;;;;;;;;;;;6152021;23;19920;-92
2022/04/06 10:55:25;;;;;;;;;;;;;;;;;;6176523;23;19994;-91
2022/04/06 10:57:53;;;;;;;;;;;;;;;;;;6152491;23;20349;-92
2022/04/06 11:00:19;;;;;;;;;;;;;;;;;;6128759;23;19952;-93
2022/04/06 11:02:47;;;;;;;;;;;;;;;;;;6128637;23;19916;-93
2022/04/06 11:05:15;;;;;;;;;;;;;;;;;;6153715;23;20428;-93
2022/04/06 11:10:43;;;;;;;;;;;;;;;;;;6211679;23;19938;-94
2022/04/06 11:13:10;;;;;;;;;;;;;;;;;;6185568;23;20348;-92
2022/04/06 11:15:38;;;;;;;;;;;;;;;;;;6184835;23;20351;-92
2022/04/06 11:18:06;;;;;;;;;;;;;;;;;;6184980;23;19926;-92
2022/04/06 11:20:50;;;;;;;;;;;;;;;;;;6199979;23;20083;-92
2022/04/06 11:23:17;;;;;;;;;;;;;;;;;;6128837;23;20004;-92
2022/04/06 11:25:42;;;;;;;;;;;;;;;;;;6129104;23;19920;-93
2022/04/06 11:28:09;;;;;;;;;;;;;;;;;;6129167;23;19992;-92
2022/04/06 11:30:38;;;;;;;;;;;;;;;;;;6129068;23;19923;-92
2022/04/06 11:33:06;;;;;;;;;;;;;;;;;;6154377;23;19921;-92
2022/04/06 11:35:36;;;;;;;;;;;;;;;;;;6129224;23;19920;-92
2022/04/06 11:38:03;;;;;;;;;;;;;;;;;;6152262;23;19947;-91
2022/04/06 11:40:31;;;;;;;;;;;;;;;;;;6153407;23;19920;-92
2022/04/06 11:42:58;;;;;;;;;;;;;;;;;;6152829;23;19916;-92
2022/04/06 11:45:24;;;;;;;;;;;;;;;;;;6153198;23;19917;-93
2022/04/06 11:47:51;;;;;;;;;;;;;;;;;;6154311;23;20219;-93
2022/04/06 11:50:19;;;;;;;;;;;;;;;;;;6128986;23;19923;-92
2022/04/06 11:52:46;;;;;;;;;;;;;;;;;;6177264;23;20371;-92
2022/04/06 11:55:12;;;;;;;;;;;;;;;;;;6182283;23;20592;-93
2022/04/06 11:57:48;;;;;;;;;;;;;;;;;;6184006;23;20383;-91
2022/04/06 12:00:15;;;;;;;;;;;;;;;;;;6183319;23;20279;-92
2022/04/06 12:02:41;;;;;;;;;;;;;;;;;;6183370;23;19924;-92
2022/04/06 12:05:07;;;;;;;;;;;;;;;;;;6209084;23;20387;-93
2022/04/06 12:07:34;;;;;;;;;;;;;;;;;;6213763;23;19920;-93
2022/04/06 12:10:02;;;;;;;;;;;;;;;;;;6185125;23;19930;-93
2022/04/06 12:12:30;;;;;;;;;;;;;;;;;;6184359;23;19958;-92
2022/04/06 12:14:58;;;;;;;;;;;;;;;;;;6194034;23;19981;-93
2022/04/06 12:17:25;;;;;;;;;;;;;;;;;;6195113;23;19920;-93
2022/04/06 12:20:07;;;;;;;;;;;;;;;;;;6152167;23;20008;-94
2022/04/06 12:22:34;;;;;;;;;;;;;;;;;;6129668;23;19935;-93
2022/04/06 12:25:01;;;;;;;;;;;;;;;;;;6132383;23;19928;-93
2022/04/06 12:27:29;;;;;;;;;;;;;;;;;;6123892;23;19925;-93
2022/04/06 12:29:55;;;;;;;;;;;;;;;;;;6117611;23;20317;-93
2022/04/06 12:32:22;;;;;;;;;;;;;;;;;;6140940;23;19999;-94
2022/04/06 12:35:08;;;;;;;;;;;;;;;;;;6138658;23;19959;-93
2022/04/06 12:37:43;;;;;;;;;;;;;;;;;;6118599;23;19992;-94
2022/04/06 12:40:16;;;;;;;;;;;;;;;;;;6094669;23;20361;-92
2022/04/06 12:42:42;;;;;;;;;;;;;;;;;;6093325;23;19931;-93
2022/04/06 12:45:09;;;;;;;;;;;;;;;;;;6118563;23;19917;-91
2022/04/06 12:47:50;;;;;;;;;;;;;;;;;;6111515;23;19924;-93
2022/04/06 12:50:21;;;;;;;;;;;;;;;;;;6097803;23;20257;-92
2022/04/06 12:52:48;;;;;;;;;;;;;;;;;;6123255;23;19924;-92
2022/04/06 12:55:16;;;;;;;;;;;;;;;;;;6122418;23;19920;-93
2022/04/06 12:57:43;;;;;;;;;;;;;;;;;;6123767;23;19923;-92
2022/04/06 13:00:10;;;;;;;;;;;;;;;;;;6122621;23;19974;-92
2022/04/06 13:02:38;;;;;;;;;;;;;;;;;;6118767;23;19921;-93
2022/04/06 13:05:04;;;;;;;;;;;;;;;;;;6122220;23;19920;-92
2022/04/06 13:07:31;;;;;;;;;;;;;;;;;;6121085;23;19928;-93
2022/04/06 13:09:58;;;;;;;;;;;;;;;;;;6122487;23;19943;-93
2022/04/06 13:12:26;;;;;;;;;;;;;;;;;;6121123;23;20373;-92
2022/04/06 13:14:52;;;;;;;;;;;;;;;;;;6122990;23;19928;-91
2022/04/06 13:17:19;;;;;;;;;;;;;;;;;;6124355;23;19921;-93
2022/04/06 13:19:46;;;;;;;;;;;;;;;;;;6152822;23;20352;-92
2022/04/06 13:22:13;;;;;;;;;;;;;;;;;;6131497;23;19916;-92
2022/04/06 13:24:40;;;;;;;;;;;;;;;;;;6155692;23;19924;-93
2022/04/06 13:27:08;;;;;;;;;;;;;;;;;;6155581;23;19916;-92
2022/04/06 13:29:35;;;;;;;;;;;;;;;;;;6155131;23;20321;-93
2022/04/06 13:32:02;;;;;;;;;;;;;;;;;;6156113;23;19923;-92
2022/04/06 13:34:29;;;;;;;;;;;;;;;;;;6151253;23;19920;-92
2022/04/06 13:36:56;;;;;;;;;;;;;;;;;;6151219;23;20367;-91
2022/04/06 13:39:23;;;;;;;;;;;;;;;;;;6142393;23;19927;-91
2022/04/06 13:41:55;;;;;;;;;;;;;;;;;;6178286;23;20334;-93
2022/04/06 13:44:31;;;;;;;;;;;;;;;;;;6201895;23;19970;-92
2022/04/06 13:46:58;;;;;;;;;;;;;;;;;;6177704;23;19916;-93
2022/04/06 13:49:24;;;;;;;;;;;;;;;;;;6177390;23;19920;-92
2022/04/06 13:51:55;;;;;;;;;;;;;;;;;;6176069;23;20403;-91
2022/04/06 13:54:36;;;;;;;;;;;;;;;;;;6208382;23;19920;-92
2022/04/06 13:57:03;;;;;;;;;;;;;;;;;;6184069;23;20037;-92
2022/04/06 13:59:31;;;;;;;;;;;;;;;;;;6184156;23;19920;-91
2022/04/06 14:01:58;;;;;;;;;;;;;;;;;;6184657;23;19967;-91
2022/04/06 14:04:25;;;;;;;;;;;;;;;;;;6184974;23;19931;-92
2022/04/06 14:06:53;;;;;;;;;;;;;;;;;;6184141;23;19920;-91
2022/04/06 14:09:22;;;;;;;;;;;;;;;;;;6183548;23;20248;-90
2022/04/06 14:11:51;;;;;;;;;;;;;;;;;;6181347;23;20351;-92
2022/04/06 14:14:21;;;;;;;;;;;;;;;;;;6181479;23;19966;-91
2022/04/06 14:17:03;;;;;;;;;;;;;;;;;;6208010;23;19942;-91
2022/04/06 14:19:29;;;;;;;;;;;;;;;;;;6179888;23;19924;-91
2022/04/06 14:21:55;;;;;;;;;;;;;;;;;;6180065;23;20111;-91
2022/04/06 14:24:24;;;;;;;;;;;;;;;;;;6179898;23;19924;-90
2022/04/06 14:26:50;;;;;;;;;;;;;;;;;;6182030;23;19923;-91
2022/04/06 14:29:16;;;;;;;;;;;;;;;;;;6180407;23;19916;-91
2022/04/06 14:31:43;;;;;;;;;;;;;;;;;;6180523;23;19920;-91
2022/04/06 14:34:11;;;;;;;;;;;;;;;;;;6180433;23;19924;-90
2022/04/06 14:36:40;;;;;;;;;;;;;;;;;;6182386;23;19920;-89
2022/04/06 14:39:07;;;;;;;;;;;;;;;;;;6177984;23;20241;-89
2022/04/06 14:41:35;;;;;;;;;;;;;;;;;;6179900;23;19924;-89
2022/04/06 14:44:00;;;;;;;;;;;;;;;;;;6179785;23;19916;-88
2022/04/06 14:46:26;;;;;;;;;;;;;;;;;;6179297;23;19924;-89
2022/04/06 14:48:52;;;;;;;;;;;;;;;;;;6180566;23;20423;-87
2022/04/06 14:51:19;;;;;;;;;;;;;;;;;;6180108;23;19920;-88
2022/04/06 14:53:47;;;;;;;;;;;;;;;;;;6179316;23;19922;-89
2022/04/06 14:56:14;;;;;;;;;;;;;;;;;;6177266;23;20301;-88
2022/04/06 14:58:40;;;;;;;;;;;;;;;;;;6178186;23;19943;-88
2022/04/06 15:01:07;;;;;;;;;;;;;;;;;;6179685;23;19920;-89
2022/04/06 15:03:35;;;;;;;;;;;;;;;;;;6178170;23;19916;-89
2022/04/06 15:06:05;;;;;;;;;;;;;;;;;;6177929;23;19924;-88
2022/04/06 15:08:43;;;;;;;;;;;;;;;;;;6178451;23;19931;-88
2022/04/06 15:11:14;;;;;;;;;;;;;;;;;;6176221;23;20264;-88
2022/04/06 15:13:41;;;;;;;;;;;;;;;;;;6176960;23;19920;-90
2022/04/06 15:16:08;;;;;;;;;;;;;;;;;;6177344;23;19920;-89
2022/04/06 15:18:35;;;;;;;;;;;;;;;;;;6176153;23;19931;-89
2022/04/06 15:21:03;;;;;;;;;;;;;;;;;;6175719;23;19922;-90
2022/04/06 15:23:30;;;;;;;;;;;;;;;;;;6176622;23;20396;-89
2022/04/06 15:25:56;;;;;;;;;;;;;;;;;;6176826;23;20218;-90
2022/04/06 15:28:22;;;;;;;;;;;;;;;;;;6174723;23;19920;-88
2022/04/06 15:30:49;;;;;;;;;;;;;;;;;;6176914;23;19976;-90
2022/04/06 15:33:16;;;;;;;;;;;;;;;;;;6174236;23;19928;-90
2022/04/06 15:38:31;;;;;;;;;;;;;;;;;;6183561;23;19928;-89
2022/04/06 15:40:57;;;;;;;;;;;;;;;;;;6178312;23;19946;-89
2022/04/06 15:43:24;;;;;;;;;;;;;;;;;;6178735;23;19920;-89
2022/04/06 15:45:53;;;;;;;;;;;;;;;;;;6205980;23;19974;-91
2022/04/06 15:48:34;;;;;;;;;;;;;;;;;;6137441;23;19917;-88
2022/04/06 15:51:01;;;;;;;;;;;;;;;;;;6140500;23;20080;-90
2022/04/06 15:53:29;;;;;;;;;;;;;;;;;;6090472;23;20115;-89
2022/04/06 15:55:55;;;;;;;;;;;;;;;;;;6140130;23;19972;-89
2022/04/06 15:58:22;;;;;;;;;;;;;;;;;;6092048;23;20175;-89
2022/04/06 16:00:49;;;;;;;;;;;;;;;;;;6091920;23;20404;-90
2022/04/06 16:03:16;;;;;;;;;;;;;;;;;;6140717;23;19961;-89
2022/04/06 16:05:43;;;;;;;;;;;;;;;;;;6092842;23;19920;-90
2022/04/06 16:08:11;;;;;;;;;;;;;;;;;;6141678;23;20331;-90
2022/04/06 16:10:37;;;;;;;;;;;;;;;;;;6092546;23;19924;-90
2022/04/06 16:13:07;;;;;;;;;;;;;;;;;;6122465;23;20425;-90
2022/04/06 16:15:38;;;;;;;;;;;;;;;;;;6097967;23;19921;-90
2022/04/06 16:18:05;;;;;;;;;;;;;;;;;;6097651;23;19921;-90
2022/04/06 16:20:41;;;;;;;;;;;;;;;;;;6098198;23;19925;-90
2022/04/06 16:23:08;;;;;;;;;;;;;;;;;;6145450;23;20099;-89
2022/04/06 16:25:56;;;;;;;;;;;;;;;;;;6162589;23;19927;-89
2022/04/06 16:28:22;;;;;;;;;;;;;;;;;;6182588;23;19922;-89
2022/04/06 16:30:49;;;;;;;;;;;;;;;;;;6182619;23;19921;-90
2022/04/06 16:33:18;;;;;;;;;;;;;;;;;;6184598;23;20248;-90
2022/04/06 16:35:45;;;;;;;;;;;;;;;;;;6186067;23;19920;-90
2022/04/06 16:38:14;;;;;;;;;;;;;;;;;;6185239;23;20301;-91
2022/04/06 16:40:41;;;;;;;;;;;;;;;;;;6185821;23;20260;-92
2022/04/06 16:43:08;;;;;;;;;;;;;;;;;;6185777;23;20014;-91
2022/04/06 16:45:34;;;;;;;;;;;;;;;;;;6186454;23;19916;-92
2022/04/06 16:48:07;;;;;;;;;;;;;;;;;;6185724;23;19927;-92
2022/04/06 16:53:20;;;;;;;;;;;;;;;;;;6185036;23;19920;-91
2022/04/06 16:55:46;;;;;;;;;;;;;;;;;;6183828;23;19920;-91
2022/04/06 16:58:13;;;;;;;;;;;;;;;;;;6183603;23;20238;-90
2022/04/06 17:00:41;;;;;;;;;;;;;;;;;;6184074;23;19958;-90
2022/04/06 17:03:10;;;;;;;;;;;;;;;;;;6184784;23;19930;-91
2022/04/06 17:05:38;;;;;;;;;;;;;;;;;;6185841;23;19962;-90
2022/04/06 17:08:06;;;;;;;;;;;;;;;;;;6210771;23;19919;-90